createdAt,value
2022-08-01T00:00:37.964Z,96948.16
2022-08-01T00:03:05.492Z,96951.13
2022-08-01T00:05:33.172Z,96944.19
2022-08-01T00:08:00.235Z,96933.47
2022-08-01T00:10:28.753Z,96946.69
2022-08-01T00:12:56.051Z,96939.28
2022-08-01T00:15:23.106Z,96933.97
2022-08-01T00:17:50.760Z,96936.50
2022-08-01T00:20:17.974Z,96931.69
2022-08-01T00:22:44.952Z,96931.41
2022-08-01T00:25:12.126Z,96928.00
2022-08-01T00:27:39.184Z,96932.19
2022-08-01T00:30:13.212Z,96929.66
2022-08-01T00:32:43.947Z,96919.41
2022-08-01T00:35:11.922Z,96919.00
2022-08-01T00:37:39.101Z,96910.84
2022-08-01T00:40:07.661Z,96902.28
2022-08-01T00:42:34.664Z,96907.97
2022-08-01T00:45:01.731Z,96897.97
2022-08-01T00:47:28.923Z,96896.06
2022-08-01T00:49:56.094Z,96891.06
2022-08-01T00:52:23.204Z,96901.31
2022-08-01T00:54:50.637Z,96893.69
2022-08-01T00:57:39.985Z,96898.59
2022-08-01T01:00:06.166Z,96896.97
2022-08-01T01:02:34.490Z,96895.09
2022-08-01T01:05:01.931Z,96895.09
2022-08-01T01:08:01.005Z,96898.56
2022-08-01T01:10:44.303Z,96890.88
2022-08-01T01:13:29.780Z,96893.94
2022-08-01T01:16:00.914Z,96892.47
2022-08-01T01:18:39.093Z,96895.97
2022-08-01T01:21:17.767Z,96888.34
2022-08-01T01:24:15.069Z,96889.94
2022-08-01T01:26:54.081Z,96902.03
2022-08-01T01:29:32.266Z,96899.38
2022-08-01T01:32:40.994Z,96902.91
2022-08-01T01:35:12.017Z,96898.78
2022-08-01T01:37:41.694Z,96890.25
2022-08-01T01:40:12.661Z,96887.97
2022-08-01T01:42:41.362Z,96888.72
2022-08-01T01:45:09.638Z,96890.56
2022-08-01T01:47:39.595Z,96887.06
2022-08-01T01:50:09.731Z,96886.28
2022-08-01T01:52:39.486Z,96885.19
2022-08-01T01:55:09.561Z,96875.00
2022-08-01T01:57:44.629Z,96879.34
2022-08-01T02:00:14.308Z,96863.03
2022-08-01T02:02:43.408Z,96875.88
2022-08-01T02:05:13.233Z,96869.47
2022-08-01T02:07:42.137Z,96869.84
2022-08-01T02:10:12.461Z,96868.16
2022-08-01T02:12:42.841Z,96868.72
2022-08-01T02:15:12.504Z,96871.47
2022-08-01T02:17:49.926Z,96870.38
2022-08-01T02:20:18.025Z,96859.75
2022-08-01T02:23:02.828Z,96869.63
2022-08-01T02:25:39.544Z,96873.66
2022-08-01T02:28:32.020Z,96866.25
2022-08-01T02:31:05.548Z,96854.34
2022-08-01T02:33:42.104Z,96859.22
2022-08-01T02:36:31.643Z,96861.56
2022-08-01T02:39:00.305Z,96866.63
2022-08-01T02:41:29.593Z,96855.81
2022-08-01T02:44:03.420Z,96851.31
2022-08-01T02:46:40.982Z,96854.63
2022-08-01T02:49:13.151Z,96849.97
2022-08-01T02:51:42.129Z,96849.56
2022-08-01T02:54:12.562Z,96848.94
2022-08-01T02:56:42.061Z,96845.28
2022-08-01T02:59:13.741Z,96848.94
2022-08-01T03:01:44.652Z,96842.44
2022-08-01T03:04:13.050Z,96839.72
2022-08-01T03:06:45.115Z,96840.19
2022-08-01T03:09:13.048Z,96839.16
2022-08-01T03:11:44.295Z,96832.84
2022-08-01T03:14:13.631Z,96840.53
2022-08-01T03:16:44.283Z,96831.56
2022-08-01T03:19:14.882Z,96838.50
2022-08-01T03:21:44.738Z,96832.56
2022-08-01T03:24:12.792Z,96831.91
2022-08-01T03:26:41.466Z,96831.22
2022-08-01T03:29:14.046Z,96837.31
2022-08-01T03:31:45.159Z,96843.09
2022-08-01T03:34:12.298Z,96836.69
2022-08-01T03:36:47.821Z,96834.69
2022-08-01T03:39:19.326Z,96837.59
2022-08-01T03:41:56.647Z,96831.56
2022-08-01T03:44:28.606Z,96826.25
2022-08-01T03:47:06.760Z,96825.06
2022-08-01T03:49:36.489Z,96836.16
2022-08-01T03:52:08.401Z,96832.75
2022-08-01T03:54:39.089Z,96831.56
2022-08-01T03:57:07.060Z,96824.97
2022-08-01T03:59:37.726Z,96819.56
2022-08-01T04:02:06.272Z,96822.97
2022-08-01T04:04:34.686Z,96818.84
2022-08-01T04:07:07.587Z,96826.16
2022-08-01T04:09:34.695Z,96831.75
2022-08-01T04:12:02.923Z,96822.06
2022-08-01T04:14:39.160Z,96834.13
2022-08-01T04:17:06.413Z,96826.25
2022-08-01T04:19:33.381Z,96839.34
2022-08-01T04:22:01.428Z,96824.75
2022-08-01T04:24:31.281Z,96820.88
2022-08-01T04:27:01.557Z,96833.88
2022-08-01T04:29:31.318Z,96835.41
2022-08-01T04:32:01.677Z,96827.91
2022-08-01T04:34:32.033Z,96830.00
2022-08-01T04:36:59.968Z,96829.88
2022-08-01T04:39:29.396Z,96838.03
2022-08-01T04:41:59.909Z,96839.41
2022-08-01T04:44:32.503Z,96841.53
2022-08-01T04:47:04.746Z,96830.91
2022-08-01T04:49:48.533Z,96828.66
2022-08-01T04:52:24.360Z,96825.94
2022-08-01T04:54:51.921Z,96827.94
2022-08-01T04:57:19.017Z,96816.72
2022-08-01T05:02:30.546Z,96823.28
2022-08-01T05:04:57.880Z,96810.56
2022-08-01T05:07:25.002Z,96808.63
2022-08-01T05:09:52.390Z,96813.25
2022-08-01T05:12:19.752Z,96810.38
2022-08-01T05:14:47.206Z,96806.78
2022-08-01T05:17:14.338Z,96811.03
2022-08-01T05:19:44.194Z,96809.44
2022-08-01T05:22:13.950Z,96801.88
2022-08-01T05:24:41.727Z,96802.63
2022-08-01T05:27:11.566Z,96789.63
2022-08-01T05:29:44.562Z,96795.25
2022-08-01T05:32:12.083Z,96795.00
2022-08-01T05:34:39.067Z,96794.13
2022-08-01T05:37:06.260Z,96787.22
2022-08-01T05:39:33.272Z,96793.69
2022-08-01T05:42:00.416Z,96789.66
2022-08-01T05:44:27.608Z,96790.88
2022-08-01T05:46:54.925Z,96790.69
2022-08-01T05:49:21.987Z,96796.91
2022-08-01T05:51:49.589Z,96795.78
2022-08-01T05:54:16.400Z,96800.81
2022-08-01T05:56:43.408Z,96794.78
2022-08-01T05:59:10.369Z,96799.38
2022-08-01T06:01:37.583Z,96795.84
2022-08-01T06:04:05.201Z,96787.94
2022-08-01T06:06:32.167Z,96791.22
2022-08-01T06:08:59.479Z,96797.91
2022-08-01T06:11:26.585Z,96799.06
2022-08-01T06:13:54.910Z,96793.97
2022-08-01T06:16:21.873Z,96805.84
2022-08-01T06:18:49.082Z,96791.53
2022-08-01T06:21:16.374Z,96796.25
2022-08-01T06:23:43.861Z,96792.81
2022-08-01T06:26:11.402Z,96796.75
2022-08-01T06:28:39.736Z,96783.44
2022-08-01T06:31:07.021Z,96791.03
2022-08-01T06:33:34.062Z,96785.41
2022-08-01T06:36:01.532Z,96794.28
2022-08-01T06:38:28.690Z,96784.97
2022-08-01T06:40:55.592Z,96790.19
2022-08-01T06:43:22.610Z,96786.13
2022-08-01T06:45:50.018Z,96785.09
2022-08-01T06:48:20.110Z,96792.34
2022-08-01T06:50:47.273Z,96791.91
2022-08-01T06:53:14.297Z,96791.44
2022-08-01T06:55:41.376Z,96780.84
2022-08-01T06:58:08.366Z,96782.09
2022-08-01T07:00:35.506Z,96778.50
2022-08-01T07:03:02.679Z,96778.38
2022-08-01T07:05:32.308Z,96779.84
2022-08-01T07:07:59.650Z,96785.09
2022-08-01T07:10:26.756Z,96785.38
2022-08-01T07:12:53.926Z,96782.53
2022-08-01T07:15:23.294Z,96784.78
2022-08-01T07:17:50.416Z,96781.22
2022-08-01T07:20:17.394Z,96781.31
2022-08-01T07:22:47.645Z,96780.13
2022-08-01T07:25:15.761Z,96774.84
2022-08-01T07:27:42.721Z,96778.34
2022-08-01T07:30:10.253Z,96778.06
2022-08-01T07:32:37.360Z,96780.16
2022-08-01T07:35:05.505Z,96776.09
2022-08-01T07:37:48.257Z,96778.19
2022-08-01T07:40:19.119Z,96775.94
2022-08-01T07:42:46.887Z,96770.44
2022-08-01T07:45:15.686Z,96762.34
2022-08-01T07:47:42.834Z,96775.16
2022-08-01T07:50:10.167Z,96759.59
2022-08-01T07:52:37.167Z,96763.88
2022-08-01T07:55:04.647Z,96781.06
2022-08-01T07:57:31.858Z,96777.34
2022-08-01T07:59:58.842Z,96772.28
2022-08-01T08:02:26.099Z,96768.63
2022-08-01T08:04:53.802Z,96769.72
2022-08-01T08:07:20.807Z,96771.75
2022-08-01T08:09:51.028Z,96770.03
2022-08-01T08:12:18.449Z,96759.13
2022-08-01T08:14:55.327Z,96785.28
2022-08-01T08:17:24.836Z,96773.59
2022-08-01T08:19:51.943Z,96772.00
2022-08-01T08:22:19.040Z,96775.56
2022-08-01T08:24:46.971Z,96771.91
2022-08-01T08:27:14.551Z,96781.06
2022-08-01T08:29:41.458Z,96774.06
2022-08-01T08:32:09.506Z,96780.09
2022-08-01T08:34:37.032Z,96778.50
2022-08-01T08:37:03.976Z,96777.97
2022-08-01T08:39:42.131Z,96775.75
2022-08-01T08:42:11.665Z,96775.81
2022-08-01T08:44:43.733Z,96793.75
2022-08-01T08:47:19.335Z,96790.00
2022-08-01T08:49:49.480Z,96792.53
2022-08-01T08:52:19.133Z,96800.50
2022-08-01T08:54:47.722Z,96799.75
2022-08-01T08:57:16.512Z,96804.72
2022-08-01T08:59:46.601Z,96802.91
2022-08-01T09:02:14.328Z,96798.00
2022-08-01T09:04:42.052Z,96797.22
2022-08-01T09:07:09.856Z,96806.19
2022-08-01T09:09:41.774Z,96802.38
2022-08-01T09:12:09.696Z,96797.47
2022-08-01T09:14:46.366Z,96790.59
2022-08-01T09:17:14.131Z,96769.06
2022-08-01T09:19:43.484Z,96783.53
2022-08-01T09:22:13.074Z,96804.19
2022-08-01T09:24:42.059Z,96803.97
2022-08-01T09:27:25.123Z,96802.38
2022-08-01T09:30:01.657Z,96800.53
2022-08-01T09:32:35.859Z,96787.75
2022-08-01T09:35:43.201Z,96783.75
2022-08-01T09:38:21.101Z,96774.97
2022-08-01T09:40:59.380Z,96778.72
2022-08-01T09:43:28.962Z,96783.75
2022-08-01T09:45:57.950Z,96780.34
2022-08-01T09:48:29.487Z,96781.06
2022-08-01T09:51:04.773Z,96787.66
2022-08-01T09:53:52.569Z,96789.78
2022-08-01T09:56:22.351Z,96776.72
2022-08-01T09:59:01.567Z,96795.16
2022-08-01T10:01:49.935Z,96771.63
2022-08-01T10:04:20.443Z,96780.31
2022-08-01T10:06:55.589Z,96789.19
2022-08-01T10:09:40.208Z,96767.81
2022-08-01T10:12:09.210Z,96765.50
2022-08-01T10:14:46.105Z,96766.38
2022-08-01T10:17:18.145Z,96772.81
2022-08-01T10:19:47.644Z,96775.50
2022-08-01T10:22:19.085Z,96764.75
2022-08-01T10:24:49.260Z,96761.50
2022-08-01T10:27:24.584Z,96764.13
2022-08-01T10:30:19.239Z,96771.16
2022-08-01T10:32:55.134Z,96769.63
2022-08-01T10:35:24.061Z,96766.13
2022-08-01T10:38:10.723Z,96769.16
2022-08-01T10:40:42.806Z,96754.44
2022-08-01T10:43:12.037Z,96759.25
2022-08-01T10:45:40.543Z,96766.31
2022-08-01T10:48:13.903Z,96760.41
2022-08-01T10:50:50.058Z,96759.53
2022-08-01T10:53:24.331Z,96757.88
2022-08-01T10:55:59.347Z,96764.00
2022-08-01T10:58:38.006Z,96755.34
2022-08-01T11:01:16.403Z,96761.41
2022-08-01T11:03:57.621Z,96747.25
2022-08-01T11:06:36.267Z,96760.19
2022-08-01T11:09:07.102Z,96753.59
2022-08-01T11:11:54.184Z,96756.88
2022-08-01T11:14:26.344Z,96759.59
2022-08-01T11:16:53.612Z,96759.34
2022-08-01T11:19:21.005Z,96762.63
2022-08-01T11:21:58.062Z,96759.91
2022-08-01T11:24:57.927Z,96745.78
2022-08-01T11:27:33.761Z,96763.16
2022-08-01T11:30:13.267Z,96749.06
2022-08-01T11:33:10.436Z,96746.88
2022-08-01T11:35:59.371Z,96734.41
2022-08-01T11:38:31.597Z,96746.34
2022-08-01T11:41:37.567Z,96749.59
2022-08-01T11:44:28.440Z,96745.25
2022-08-01T11:47:13.624Z,96742.00
2022-08-01T11:49:48.804Z,96751.22
2022-08-01T11:52:27.278Z,96742.50
2022-08-01T11:55:10.180Z,96740.25
2022-08-01T11:57:39.281Z,96746.97
2022-08-01T12:00:15.292Z,96739.22
2022-08-01T12:02:45.782Z,96728.16
2022-08-01T12:05:15.913Z,96733.31
2022-08-01T12:07:44.886Z,96729.00
2022-08-01T12:10:17.496Z,96729.00
2022-08-01T12:12:47.308Z,96731.72
2022-08-01T12:15:14.727Z,96737.13
2022-08-01T12:17:57.955Z,96730.63
2022-08-01T12:20:36.747Z,96722.22
2022-08-01T12:23:07.202Z,96737.66
2022-08-01T12:25:34.712Z,96738.47
2022-08-01T12:28:04.037Z,96722.47
2022-08-01T12:30:36.607Z,96715.13
2022-08-01T12:33:11.884Z,96714.06
2022-08-01T12:35:42.015Z,96713.28
2022-08-01T12:38:19.679Z,96717.53
2022-08-01T12:40:53.053Z,96712.97
2022-08-01T12:43:27.908Z,96724.13
2022-08-01T12:45:59.134Z,96712.19
2022-08-01T12:48:26.899Z,96708.88
2022-08-01T12:50:55.409Z,96716.44
2022-08-01T12:53:23.311Z,96707.47
2022-08-01T12:55:59.400Z,96707.09
2022-08-01T12:58:36.104Z,96707.84
2022-08-01T13:01:08.948Z,96704.97
2022-08-01T13:03:36.449Z,96702.38
2022-08-01T13:06:10.934Z,96699.19
2022-08-01T13:08:39.692Z,96687.22
2022-08-01T13:11:11.038Z,96691.25
2022-08-01T13:13:52.395Z,96693.06
2022-08-01T13:16:30.421Z,96694.53
2022-08-01T13:19:01.935Z,96694.78
2022-08-01T13:21:52.193Z,96703.41
2022-08-01T13:24:29.090Z,96696.25
2022-08-01T13:27:05.311Z,96701.84
2022-08-01T13:29:35.930Z,96705.41
2022-08-01T13:32:29.980Z,96701.34
2022-08-01T13:35:08.608Z,96684.78
2022-08-01T13:37:37.244Z,96692.59
2022-08-01T13:40:07.720Z,96701.03
2022-08-01T13:42:35.132Z,96693.19
2022-08-01T13:45:03.093Z,96694.22
2022-08-01T13:47:33.471Z,96703.97
2022-08-01T13:50:03.755Z,96696.38
2022-08-01T13:52:32.016Z,96696.94
2022-08-01T13:55:00.406Z,96691.16
2022-08-01T13:57:37.085Z,96696.28
2022-08-01T14:00:09.777Z,96683.25
2022-08-01T14:02:37.208Z,96684.31
2022-08-01T14:05:04.476Z,96690.84
2022-08-01T14:07:31.336Z,96694.06
2022-08-01T14:10:18.285Z,96693.53
2022-08-01T14:12:45.838Z,96696.81
2022-08-01T14:15:13.090Z,96691.41
2022-08-01T14:17:47.670Z,96692.72
2022-08-01T14:20:15.238Z,96705.53
2022-08-01T14:22:42.856Z,96692.34
2022-08-01T14:25:10.362Z,96700.22
2022-08-01T14:27:37.583Z,96689.31
2022-08-01T14:30:05.223Z,96694.69
2022-08-01T14:32:34.395Z,96695.88
2022-08-01T14:35:06.879Z,96691.00
2022-08-01T14:37:38.022Z,96700.25
2022-08-01T14:40:10.821Z,96704.59
2022-08-01T14:42:39.652Z,96698.34
2022-08-01T14:45:10.010Z,96696.19
2022-08-01T14:47:41.336Z,96697.53
2022-08-01T14:50:11.408Z,96694.25
2022-08-01T14:52:43.826Z,96698.59
2022-08-01T14:55:12.349Z,96692.91
2022-08-01T14:57:40.671Z,96698.66
2022-08-01T15:00:16.160Z,96694.28
2022-08-01T15:02:44.051Z,96695.63
2022-08-01T15:05:11.550Z,96699.16
2022-08-01T15:07:51.551Z,96705.13
2022-08-01T15:10:19.740Z,96705.38
2022-08-01T15:12:50.528Z,96701.59
2022-08-01T15:15:17.810Z,96705.16
2022-08-01T15:17:44.985Z,96705.13
2022-08-01T15:20:12.132Z,96707.25
2022-08-01T15:22:39.539Z,96701.84
2022-08-01T15:25:09.324Z,96699.41
2022-08-01T15:27:36.385Z,96697.22
2022-08-01T15:30:05.380Z,96699.97
2022-08-01T15:32:32.576Z,96698.09
2022-08-01T15:34:59.659Z,96696.44
2022-08-01T15:37:26.652Z,96696.16
2022-08-01T15:39:56.496Z,96688.88
2022-08-01T15:42:26.847Z,96687.78
2022-08-01T15:44:54.472Z,96688.88
2022-08-01T15:47:21.583Z,96687.25
2022-08-01T15:49:52.398Z,96691.81
2022-08-01T15:52:22.387Z,96694.25
2022-08-01T15:54:50.341Z,96699.69
2022-08-01T15:57:18.064Z,96696.44
2022-08-01T15:59:45.433Z,96696.41
2022-08-01T16:02:12.311Z,96691.53
2022-08-01T16:04:39.273Z,96694.22
2022-08-01T16:07:06.440Z,96697.97
2022-08-01T16:09:33.489Z,96699.56
2022-08-01T16:12:00.355Z,96701.69
2022-08-01T16:14:27.720Z,96701.13
2022-08-01T16:16:55.057Z,96702.72
2022-08-01T16:19:22.187Z,96704.84
2022-08-01T16:21:49.456Z,96712.38
2022-08-01T16:24:16.500Z,96715.56
2022-08-01T16:26:43.611Z,96710.66
2022-08-01T16:29:10.953Z,96723.78
2022-08-01T16:31:55.784Z,96716.44
2022-08-01T16:34:25.291Z,96718.78
2022-08-01T16:36:53.577Z,96724.91
2022-08-01T16:39:23.505Z,96729.72
2022-08-01T16:41:55.072Z,96728.09
2022-08-01T16:44:33.440Z,96727.50
2022-08-01T16:47:04.432Z,96729.38
2022-08-01T16:49:34.703Z,96723.66
2022-08-01T16:52:20.708Z,96721.38
2022-08-01T16:54:47.800Z,96715.63
2022-08-01T16:57:15.178Z,96730.97
2022-08-01T16:59:42.775Z,96731.19
2022-08-01T17:02:11.518Z,96734.59
2022-08-01T17:04:38.770Z,96731.84
2022-08-01T17:07:06.121Z,96726.38
2022-08-01T17:09:33.321Z,96733.81
2022-08-01T17:12:00.375Z,96742.91
2022-08-01T17:14:28.996Z,96731.16
2022-08-01T17:16:56.284Z,96734.88
2022-08-01T17:19:26.806Z,96743.72
2022-08-01T17:22:00.039Z,96741.50
2022-08-01T17:24:27.455Z,96743.03
2022-08-01T17:26:54.689Z,96750.47
2022-08-01T17:29:21.643Z,96750.91
2022-08-01T17:31:49.736Z,96747.50
2022-08-01T17:34:17.160Z,96747.91
2022-08-01T17:36:43.954Z,96752.16
2022-08-01T17:39:12.620Z,96757.06
2022-08-01T17:41:40.790Z,96755.59
2022-08-01T17:44:17.856Z,96758.06
2022-08-01T17:46:45.426Z,96766.53
2022-08-01T17:49:12.594Z,96765.41
2022-08-01T17:51:39.729Z,96777.06
2022-08-01T17:54:08.907Z,96771.59
2022-08-01T17:56:39.269Z,96774.44
2022-08-01T17:59:08.106Z,96778.72
2022-08-01T18:01:36.090Z,96778.53
2022-08-01T18:04:06.231Z,96781.84
2022-08-01T18:06:35.860Z,96787.16
2022-08-01T18:09:04.478Z,96785.19
2022-08-01T18:11:37.251Z,96793.97
2022-08-01T18:14:05.277Z,96795.28
2022-08-01T18:16:32.263Z,96800.78
2022-08-01T18:19:00.248Z,96802.88
2022-08-01T18:21:27.368Z,96814.03
2022-08-01T18:23:54.384Z,96809.72
2022-08-01T18:26:22.495Z,96814.97
2022-08-01T18:28:49.863Z,96809.94
2022-08-01T18:31:17.959Z,96823.75
2022-08-01T18:33:45.595Z,96826.31
2022-08-01T18:36:23.157Z,96832.19
2022-08-01T18:39:01.934Z,96833.59
2022-08-01T18:41:33.266Z,96846.94
2022-08-01T18:44:04.315Z,96842.47
2022-08-01T18:46:34.811Z,96844.81
2022-08-01T18:49:02.136Z,96852.88
2022-08-01T18:51:29.568Z,96855.81
2022-08-01T18:53:58.336Z,96853.47
2022-08-01T18:56:25.809Z,96858.97
2022-08-01T18:58:53.644Z,96865.03
2022-08-01T19:01:22.175Z,96865.16
2022-08-01T19:03:49.252Z,96870.97
2022-08-01T19:06:16.412Z,96868.59
2022-08-01T19:08:44.967Z,96871.16
2022-08-01T19:11:12.165Z,96874.16
2022-08-01T19:13:39.487Z,96876.13
2022-08-01T19:16:07.041Z,96883.59
2022-08-01T19:18:34.135Z,96888.28
2022-08-01T19:21:07.140Z,96885.88
2022-08-01T19:23:58.024Z,96886.22
2022-08-01T19:26:27.047Z,96882.47
2022-08-01T19:28:58.940Z,96893.69
2022-08-01T19:31:28.621Z,96890.84
2022-08-01T19:33:57.772Z,96887.59
2022-08-01T19:36:25.561Z,96891.19
2022-08-01T19:38:53.103Z,96890.13
2022-08-01T19:41:20.038Z,96891.63
2022-08-01T19:43:48.337Z,96888.19
2022-08-01T19:46:18.269Z,96897.72
2022-08-01T19:48:53.047Z,96893.41
2022-08-01T19:51:32.881Z,96891.53
2022-08-01T19:54:05.095Z,96900.03
2022-08-01T19:56:39.946Z,96895.78
2022-08-01T19:59:15.118Z,96894.97
2022-08-01T20:01:42.911Z,96897.88
2022-08-01T20:04:10.283Z,96903.09
2022-08-01T20:06:37.782Z,96901.09
2022-08-01T20:09:05.346Z,96906.09
2022-08-01T20:11:32.767Z,96909.66
2022-08-01T20:14:01.364Z,96901.91
2022-08-01T20:16:30.196Z,96910.69
2022-08-01T20:18:57.329Z,96910.97
2022-08-01T20:21:26.159Z,96916.56
2022-08-01T20:24:02.847Z,96921.16
2022-08-01T20:26:31.333Z,96915.84
2022-08-01T20:28:59.966Z,96920.81
2022-08-01T20:31:30.641Z,96918.03
2022-08-01T20:34:17.243Z,96919.28
2022-08-01T20:36:54.727Z,96925.47
2022-08-01T20:39:24.544Z,96926.28
2022-08-01T20:42:00.061Z,96927.53
2022-08-01T20:44:32.597Z,96924.06
2022-08-01T20:47:01.632Z,96926.50
2022-08-01T20:49:30.304Z,96926.28
2022-08-01T20:51:58.051Z,96932.25
2022-08-01T20:54:26.931Z,96937.22
2022-08-01T20:57:23.760Z,96930.00
2022-08-01T21:00:02.761Z,96927.78
2022-08-01T21:03:01.637Z,96929.19
2022-08-01T21:05:32.674Z,96930.38
2022-08-01T21:08:13.734Z,96932.84
2022-08-01T21:10:41.709Z,96928.75
2022-08-01T21:13:21.290Z,96939.47
2022-08-01T21:15:56.746Z,96936.41
2022-08-01T21:19:10.070Z,96937.06
2022-08-01T21:21:44.621Z,96933.78
2022-08-01T21:24:19.179Z,96942.84
2022-08-01T21:26:47.161Z,96934.19
2022-08-01T21:29:15.623Z,96943.28
2022-08-01T21:31:42.737Z,96940.44
2022-08-01T21:34:10.837Z,96944.19
2022-08-01T21:36:38.087Z,96940.91
2022-08-01T21:39:07.981Z,96950.81
2022-08-01T21:41:56.344Z,96944.41
2022-08-01T21:44:28.715Z,96951.47
2022-08-01T21:47:00.159Z,96954.78
2022-08-01T21:49:28.033Z,96951.94
2022-08-01T21:52:05.435Z,96953.41
2022-08-01T21:54:56.813Z,96948.06
2022-08-01T21:57:42.728Z,96948.91
2022-08-01T22:00:21.020Z,96952.22
2022-08-01T22:03:11.576Z,96956.38
2022-08-01T22:05:50.652Z,96958.47
2022-08-01T22:08:34.551Z,96965.06
2022-08-01T22:11:08.493Z,96952.53
2022-08-01T22:13:36.359Z,96953.41
2022-08-01T22:16:07.985Z,96951.16
2022-08-01T22:18:36.453Z,96948.28
2022-08-01T22:21:04.342Z,96953.22
2022-08-01T22:23:36.066Z,96952.84
2022-08-01T22:26:07.023Z,96939.91
2022-08-01T22:28:35.447Z,96941.38
2022-08-01T22:31:03.209Z,96946.31
2022-08-01T22:33:31.261Z,96946.75
2022-08-01T22:35:59.642Z,96938.13
2022-08-01T22:38:27.609Z,96930.72
2022-08-01T22:41:07.022Z,96943.50
2022-08-01T22:43:47.160Z,96935.47
2022-08-01T22:46:56.858Z,96941.44
2022-08-01T22:49:23.822Z,96935.69
2022-08-01T22:52:09.762Z,96940.63
2022-08-01T22:54:39.573Z,96940.22
2022-08-01T22:57:16.269Z,96934.91
2022-08-01T22:59:52.774Z,96946.38
2022-08-01T23:02:21.081Z,96939.00
2022-08-01T23:04:50.123Z,96940.84
2022-08-01T23:07:23.171Z,96941.63
2022-08-01T23:09:55.504Z,96943.06
2022-08-01T23:12:27.833Z,96942.00
2022-08-01T23:14:57.356Z,96942.22
2022-08-01T23:17:30.104Z,96941.38
2022-08-01T23:19:59.144Z,96950.78
2022-08-01T23:22:31.948Z,96943.78
2022-08-01T23:25:04.051Z,96951.19
2022-08-01T23:27:54.286Z,96945.41
2022-08-01T23:30:26.373Z,96942.50
2022-08-01T23:32:53.815Z,96944.97
2022-08-01T23:35:21.142Z,96943.34
2022-08-01T23:37:51.337Z,96933.44
2022-08-01T23:40:19.347Z,96947.41
2022-08-01T23:42:46.714Z,96942.41
2022-08-01T23:45:14.378Z,96949.81
2022-08-01T23:47:41.815Z,96942.81
2022-08-01T23:50:09.469Z,96944.88
2022-08-01T23:52:47.325Z,96951.59
2022-08-01T23:55:17.032Z,96942.38
2022-08-01T23:57:44.661Z,96944.41
